sensor_id;sensor_type;location;lat;lon;timestamp;temperature;humidity
67188;DHT22;54117;53.532;49.426;2022-07-23T00:00:22;20.60;94.00
67188;DHT22;54117;53.532;49.426;2022-07-23T00:02:48;20.60;93.90
67188;DHT22;54117;53.532;49.426;2022-07-23T00:05:14;20.60;94.00
67188;DHT22;54117;53.532;49.426;2022-07-23T00:07:41;20.60;93.80
67188;DHT22;54117;53.532;49.426;2022-07-23T00:10:08;20.60;93.50
67188;DHT22;54117;53.532;49.426;2022-07-23T00:12:34;20.60;93.50
67188;DHT22;54117;53.532;49.426;2022-07-23T00:15:03;20.60;93.40
67188;DHT22;54117;53.532;49.426;2022-07-23T00:17:29;20.70;93.50
67188;DHT22;54117;53.532;49.426;2022-07-23T00:19:56;20.70;93.30
67188;DHT22;54117;53.532;49.426;2022-07-23T00:22:22;20.70;93.00
67188;DHT22;54117;53.532;49.426;2022-07-23T00:24:49;20.70;93.00
67188;DHT22;54117;53.532;49.426;2022-07-23T00:27:16;20.70;93.20
67188;DHT22;54117;53.532;49.426;2022-07-23T00:29:43;20.80;93.30
67188;DHT22;54117;53.532;49.426;2022-07-23T00:32:09;20.80;93.40
67188;DHT22;54117;53.532;49.426;2022-07-23T00:34:35;20.80;93.20
67188;DHT22;54117;53.532;49.426;2022-07-23T00:37:01;20.80;93.20
67188;DHT22;54117;53.532;49.426;2022-07-23T00:39:28;20.80;93.20
67188;DHT22;54117;53.532;49.426;2022-07-23T00:41:54;20.70;92.90
67188;DHT22;54117;53.532;49.426;2022-07-23T00:44:26;20.70;92.70
67188;DHT22;54117;53.532;49.426;2022-07-23T00:46:57;20.70;92.70
67188;DHT22;54117;53.532;49.426;2022-07-23T00:49:26;20.60;92.80
67188;DHT22;54117;53.532;49.426;2022-07-23T00:51:54;20.60;93.00
67188;DHT22;54117;53.532;49.426;2022-07-23T00:54:23;20.60;93.00
67188;DHT22;54117;53.532;49.426;2022-07-23T00:56:50;20.60;92.90
67188;DHT22;54117;53.532;49.426;2022-07-23T00:59:16;20.60;93.00
67188;DHT22;54117;53.532;49.426;2022-07-23T01:01:43;20.60;93.00
67188;DHT22;54117;53.532;49.426;2022-07-23T01:04:15;20.60;93.00
67188;DHT22;54117;53.532;49.426;2022-07-23T01:06:43;20.70;93.10
67188;DHT22;54117;53.532;49.426;2022-07-23T01:09:09;20.70;93.20
67188;DHT22;54117;53.532;49.426;2022-07-23T01:11:37;20.70;93.10
67188;DHT22;54117;53.532;49.426;2022-07-23T01:14:11;20.80;92.80
67188;DHT22;54117;53.532;49.426;2022-07-23T01:16:38;20.80;92.40
67188;DHT22;54117;53.532;49.426;2022-07-23T01:19:04;20.90;92.30
67188;DHT22;54117;53.532;49.426;2022-07-23T01:21:35;20.80;91.90
67188;DHT22;54117;53.532;49.426;2022-07-23T01:24:02;20.80;91.70
67188;DHT22;54117;53.532;49.426;2022-07-23T01:26:28;20.90;91.90
67188;DHT22;54117;53.532;49.426;2022-07-23T01:28:55;20.90;92.10
67188;DHT22;54117;53.532;49.426;2022-07-23T01:31:21;21.00;92.10
67188;DHT22;54117;53.532;49.426;2022-07-23T01:33:48;21.00;92.10
67188;DHT22;54117;53.532;49.426;2022-07-23T01:36:15;21.10;92.20
67188;DHT22;54117;53.532;49.426;2022-07-23T01:38:41;21.30;91.90
67188;DHT22;54117;53.532;49.426;2022-07-23T01:41:07;21.40;91.60
67188;DHT22;54117;53.532;49.426;2022-07-23T01:43:33;21.50;91.40
67188;DHT22;54117;53.532;49.426;2022-07-23T01:46:00;21.60;91.30
67188;DHT22;54117;53.532;49.426;2022-07-23T01:48:26;21.70;91.10
67188;DHT22;54117;53.532;49.426;2022-07-23T01:50:53;21.80;91.00
67188;DHT22;54117;53.532;49.426;2022-07-23T01:53:19;21.90;90.70
67188;DHT22;54117;53.532;49.426;2022-07-23T01:55:45;22.00;90.60
67188;DHT22;54117;53.532;49.426;2022-07-23T01:58:11;22.00;90.30
67188;DHT22;54117;53.532;49.426;2022-07-23T02:00:38;22.10;90.10
67188;DHT22;54117;53.532;49.426;2022-07-23T02:03:06;22.20;89.60
67188;DHT22;54117;53.532;49.426;2022-07-23T02:05:33;22.30;89.20
67188;DHT22;54117;53.532;49.426;2022-07-23T02:08:00;22.40;88.00
67188;DHT22;54117;53.532;49.426;2022-07-23T02:10:27;22.50;87.10
67188;DHT22;54117;53.532;49.426;2022-07-23T02:12:53;22.60;86.30
67188;DHT22;54117;53.532;49.426;2022-07-23T02:15:20;22.80;85.70
67188;DHT22;54117;53.532;49.426;2022-07-23T02:17:46;23.00;84.80
67188;DHT22;54117;53.532;49.426;2022-07-23T02:20:13;23.20;83.80
67188;DHT22;54117;53.532;49.426;2022-07-23T02:22:40;23.30;82.70
67188;DHT22;54117;53.532;49.426;2022-07-23T02:25:07;23.40;82.40
67188;DHT22;54117;53.532;49.426;2022-07-23T02:27:33;23.60;81.70
67188;DHT22;54117;53.532;49.426;2022-07-23T02:30:00;23.80;81.30
67188;DHT22;54117;53.532;49.426;2022-07-23T02:32:26;24.10;80.30
67188;DHT22;54117;53.532;49.426;2022-07-23T02:34:52;24.30;78.70
67188;DHT22;54117;53.532;49.426;2022-07-23T02:37:19;24.40;77.30
67188;DHT22;54117;53.532;49.426;2022-07-23T02:39:45;24.40;75.50
67188;DHT22;54117;53.532;49.426;2022-07-23T02:42:11;24.30;74.50
67188;DHT22;54117;53.532;49.426;2022-07-23T02:44:37;24.30;74.80
67188;DHT22;54117;53.532;49.426;2022-07-23T02:47:04;24.20;74.80
67188;DHT22;54117;53.532;49.426;2022-07-23T02:49:30;24.10;74.20
67188;DHT22;54117;53.532;49.426;2022-07-23T02:51:56;24.10;74.40
67188;DHT22;54117;53.532;49.426;2022-07-23T02:54:23;24.00;74.40
67188;DHT22;54117;53.532;49.426;2022-07-23T02:56:49;23.90;74.60
67188;DHT22;54117;53.532;49.426;2022-07-23T02:59:17;23.90;75.10
67188;DHT22;54117;53.532;49.426;2022-07-23T03:01:44;23.80;76.50
67188;DHT22;54117;53.532;49.426;2022-07-23T03:04:11;23.80;77.20
67188;DHT22;54117;53.532;49.426;2022-07-23T03:06:37;23.80;77.10
67188;DHT22;54117;53.532;49.426;2022-07-23T03:09:04;23.90;76.50
67188;DHT22;54117;53.532;49.426;2022-07-23T03:11:31;23.90;75.40
67188;DHT22;54117;53.532;49.426;2022-07-23T03:13:57;23.90;75.30
67188;DHT22;54117;53.532;49.426;2022-07-23T03:16:23;24.00;74.30
67188;DHT22;54117;53.532;49.426;2022-07-23T03:18:50;24.10;74.90
67188;DHT22;54117;53.532;49.426;2022-07-23T03:21:16;24.20;74.80
67188;DHT22;54117;53.532;49.426;2022-07-23T03:23:43;24.50;75.00
67188;DHT22;54117;53.532;49.426;2022-07-23T03:26:09;24.90;72.70
67188;DHT22;54117;53.532;49.426;2022-07-23T03:28:35;25.20;72.10
67188;DHT22;54117;53.532;49.426;2022-07-23T03:31:01;25.30;71.90
67188;DHT22;54117;53.532;49.426;2022-07-23T03:33:28;25.50;70.30
67188;DHT22;54117;53.532;49.426;2022-07-23T03:35:54;25.50;68.00
67188;DHT22;54117;53.532;49.426;2022-07-23T03:38:20;25.30;67.50
67188;DHT22;54117;53.532;49.426;2022-07-23T03:40:47;25.20;67.60
67188;DHT22;54117;53.532;49.426;2022-07-23T03:43:13;25.00;68.40
67188;DHT22;54117;53.532;49.426;2022-07-23T03:45:39;24.90;67.80
67188;DHT22;54117;53.532;49.426;2022-07-23T03:48:05;24.70;67.70
67188;DHT22;54117;53.532;49.426;2022-07-23T03:50:32;24.60;68.20
67188;DHT22;54117;53.532;49.426;2022-07-23T03:52:58;24.40;69.70
67188;DHT22;54117;53.532;49.426;2022-07-23T03:55:25;24.30;70.30
67188;DHT22;54117;53.532;49.426;2022-07-23T03:57:51;24.20;71.20
67188;DHT22;54117;53.532;49.426;2022-07-23T04:00:18;24.10;71.80
67188;DHT22;54117;53.532;49.426;2022-07-23T04:02:44;24.00;73.10
67188;DHT22;54117;53.532;49.426;2022-07-23T04:05:10;23.90;74.20
67188;DHT22;54117;53.532;49.426;2022-07-23T04:07:36;23.90;74.80
67188;DHT22;54117;53.532;49.426;2022-07-23T04:10:03;23.90;75.00
67188;DHT22;54117;53.532;49.426;2022-07-23T04:12:29;23.90;74.20
67188;DHT22;54117;53.532;49.426;2022-07-23T04:14:56;23.80;73.80
67188;DHT22;54117;53.532;49.426;2022-07-23T04:17:22;23.80;73.60
67188;DHT22;54117;53.532;49.426;2022-07-23T04:19:48;23.70;73.40
67188;DHT22;54117;53.532;49.426;2022-07-23T04:22:14;23.70;73.10
67188;DHT22;54117;53.532;49.426;2022-07-23T04:24:41;23.70;72.80
67188;DHT22;54117;53.532;49.426;2022-07-23T04:27:07;23.70;72.60
67188;DHT22;54117;53.532;49.426;2022-07-23T04:29:33;23.70;72.20
67188;DHT22;54117;53.532;49.426;2022-07-23T04:31:59;23.80;72.40
67188;DHT22;54117;53.532;49.426;2022-07-23T04:34:26;23.90;72.10
67188;DHT22;54117;53.532;49.426;2022-07-23T04:36:53;24.00;71.40
67188;DHT22;54117;53.532;49.426;2022-07-23T04:39:19;24.10;70.60
67188;DHT22;54117;53.532;49.426;2022-07-23T04:41:46;24.30;69.80
67188;DHT22;54117;53.532;49.426;2022-07-23T04:44:12;24.50;69.00
67188;DHT22;54117;53.532;49.426;2022-07-23T04:46:39;24.70;68.10
67188;DHT22;54117;53.532;49.426;2022-07-23T04:49:05;24.90;68.00
67188;DHT22;54117;53.532;49.426;2022-07-23T04:51:32;25.20;66.80
67188;DHT22;54117;53.532;49.426;2022-07-23T04:53:58;25.40;66.60
67188;DHT22;54117;53.532;49.426;2022-07-23T04:56:24;25.70;65.80
67188;DHT22;54117;53.532;49.426;2022-07-23T04:58:51;26.00;64.70
67188;DHT22;54117;53.532;49.426;2022-07-23T05:01:17;26.30;64.20
67188;DHT22;54117;53.532;49.426;2022-07-23T05:03:43;26.70;63.60
67188;DHT22;54117;53.532;49.426;2022-07-23T05:06:09;27.30;62.80
67188;DHT22;54117;53.532;49.426;2022-07-23T05:08:36;28.70;61.00
67188;DHT22;54117;53.532;49.426;2022-07-23T05:11:02;30.60;56.30
67188;DHT22;54117;53.532;49.426;2022-07-23T05:13:28;32.30;52.50
67188;DHT22;54117;53.532;49.426;2022-07-23T05:15:54;33.80;49.30
67188;DHT22;54117;53.532;49.426;2022-07-23T05:18:21;35.20;46.00
67188;DHT22;54117;53.532;49.426;2022-07-23T05:20:47;36.30;43.50
67188;DHT22;54117;53.532;49.426;2022-07-23T05:23:13;37.10;42.10
67188;DHT22;54117;53.532;49.426;2022-07-23T10:37:16;26.30;57.40
67188;DHT22;54117;53.532;49.426;2022-07-23T10:40:25;21.80;98.40
67188;DHT22;54117;53.532;49.426;2022-07-23T10:47:04;21.10;98.50
67188;DHT22;54117;53.532;49.426;2022-07-23T10:53:55;20.90;99.90
67188;DHT22;54117;53.532;49.426;2022-07-23T10:59:27;20.90;99.90
67188;DHT22;54117;53.532;49.426;2022-07-23T11:02:20;20.80;99.90
67188;DHT22;54117;53.532;49.426;2022-07-23T11:04:53;21.00;99.90
67188;DHT22;54117;53.532;49.426;2022-07-23T11:07:25;21.10;99.90
67188;DHT22;54117;53.532;49.426;2022-07-23T11:09:51;21.20;99.90
67188;DHT22;54117;53.532;49.426;2022-07-23T11:15:02;21.40;99.90
67188;DHT22;54117;53.532;49.426;2022-07-23T11:17:29;21.60;99.90
67188;DHT22;54117;53.532;49.426;2022-07-23T11:25:11;22.10;99.90
67188;DHT22;54117;53.532;49.426;2022-07-23T11:27:42;22.40;99.90
67188;DHT22;54117;53.532;49.426;2022-07-23T11:30:10;22.60;99.90
67188;DHT22;54117;53.532;49.426;2022-07-23T11:32:39;22.90;99.90
67188;DHT22;54117;53.532;49.426;2022-07-23T11:35:42;23.10;99.90
67188;DHT22;54117;53.532;49.426;2022-07-23T11:38:19;23.40;99.90
67188;DHT22;54117;53.532;49.426;2022-07-23T11:40:55;23.50;99.90
67188;DHT22;54117;53.532;49.426;2022-07-23T11:43:24;23.70;99.90
67188;DHT22;54117;53.532;49.426;2022-07-23T11:45:54;23.90;99.90
67188;DHT22;54117;53.532;49.426;2022-07-23T11:48:25;23.90;99.90
67188;DHT22;54117;53.532;49.426;2022-07-23T11:50:53;24.10;99.90
67188;DHT22;54117;53.532;49.426;2022-07-23T11:53:27;24.20;99.90
67188;DHT22;54117;53.532;49.426;2022-07-23T11:56:03;24.30;99.90
67188;DHT22;54117;53.532;49.426;2022-07-23T11:58:29;24.50;99.90
67188;DHT22;54117;53.532;49.426;2022-07-23T12:00:56;24.60;99.90
67188;DHT22;54117;53.532;49.426;2022-07-23T12:03:22;24.60;99.90
67188;DHT22;54117;53.532;49.426;2022-07-23T12:05:48;24.70;99.90
67188;DHT22;54117;53.532;49.426;2022-07-23T12:08:15;24.70;99.90
67188;DHT22;54117;53.532;49.426;2022-07-23T12:10:50;24.60;99.90
67188;DHT22;54117;53.532;49.426;2022-07-23T12:13:27;24.60;99.90
67188;DHT22;54117;53.532;49.426;2022-07-23T12:15:57;24.50;99.90
67188;DHT22;54117;53.532;49.426;2022-07-23T12:18:26;24.40;99.90
67188;DHT22;54117;53.532;49.426;2022-07-23T12:20:55;24.40;99.90
67188;DHT22;54117;53.532;49.426;2022-07-23T12:23:24;24.40;99.90
67188;DHT22;54117;53.532;49.426;2022-07-23T12:25:54;24.40;99.90
67188;DHT22;54117;53.532;49.426;2022-07-23T12:28:29;24.30;99.90
67188;DHT22;54117;53.532;49.426;2022-07-23T12:30:57;24.30;99.90
67188;DHT22;54117;53.532;49.426;2022-07-23T12:33:26;24.40;99.90
67188;DHT22;54117;53.532;49.426;2022-07-23T12:36:04;24.50;99.90
67188;DHT22;54117;53.532;49.426;2022-07-23T12:38:43;24.50;99.90
67188;DHT22;54117;53.532;49.426;2022-07-23T12:41:10;24.60;99.90
67188;DHT22;54117;53.532;49.426;2022-07-23T12:43:38;24.70;99.90
67188;DHT22;54117;53.532;49.426;2022-07-23T12:46:12;24.70;99.90
67188;DHT22;54117;53.532;49.426;2022-07-23T12:51:21;24.80;99.90
67188;DHT22;54117;53.532;49.426;2022-07-23T12:53:58;24.90;99.90
67188;DHT22;54117;53.532;49.426;2022-07-23T12:56:30;24.90;99.90
67188;DHT22;54117;53.532;49.426;2022-07-23T12:58:58;25.10;99.90
67188;DHT22;54117;53.532;49.426;2022-07-23T13:01:31;25.20;99.90
67188;DHT22;54117;53.532;49.426;2022-07-23T13:04:03;25.20;99.90
67188;DHT22;54117;53.532;49.426;2022-07-23T13:06:33;25.30;99.90
67188;DHT22;54117;53.532;49.426;2022-07-23T13:09:00;25.30;99.90
67188;DHT22;54117;53.532;49.426;2022-07-23T13:11:27;25.40;99.90
67188;DHT22;54117;53.532;49.426;2022-07-23T13:13:53;25.40;99.90
67188;DHT22;54117;53.532;49.426;2022-07-23T13:16:22;25.50;99.90
67188;DHT22;54117;53.532;49.426;2022-07-23T13:18:49;25.50;99.90
67188;DHT22;54117;53.532;49.426;2022-07-23T13:21:18;25.60;99.90
67188;DHT22;54117;53.532;49.426;2022-07-23T13:23:44;25.60;99.90
67188;DHT22;54117;53.532;49.426;2022-07-23T13:26:11;25.70;99.90
67188;DHT22;54117;53.532;49.426;2022-07-23T13:28:37;25.70;99.90
67188;DHT22;54117;53.532;49.426;2022-07-23T13:31:13;25.70;99.90
67188;DHT22;54117;53.532;49.426;2022-07-23T13:33:39;25.70;97.50
67188;DHT22;54117;53.532;49.426;2022-07-23T13:36:06;25.80;96.70
67188;DHT22;54117;53.532;49.426;2022-07-23T13:38:32;25.90;95.60
67188;DHT22;54117;53.532;49.426;2022-07-23T13:40:58;25.90;95.20
67188;DHT22;54117;53.532;49.426;2022-07-23T13:43:25;25.90;95.10
67188;DHT22;54117;53.532;49.426;2022-07-23T13:45:52;25.90;94.70
67188;DHT22;54117;53.532;49.426;2022-07-23T13:48:19;25.90;94.50
67188;DHT22;54117;53.532;49.426;2022-07-23T13:50:46;26.00;94.60
67188;DHT22;54117;53.532;49.426;2022-07-23T13:53:19;26.00;94.00
67188;DHT22;54117;53.532;49.426;2022-07-23T13:55:48;26.00;94.20
67188;DHT22;54117;53.532;49.426;2022-07-23T13:58:15;26.00;93.60
67188;DHT22;54117;53.532;49.426;2022-07-23T14:00:44;26.10;93.40
67188;DHT22;54117;53.532;49.426;2022-07-23T14:03:12;26.10;93.00
67188;DHT22;54117;53.532;49.426;2022-07-23T14:05:43;26.20;91.80
67188;DHT22;54117;53.532;49.426;2022-07-23T14:08:11;26.20;91.70
67188;DHT22;54117;53.532;49.426;2022-07-23T14:10:37;26.30;91.00
67188;DHT22;54117;53.532;49.426;2022-07-23T14:13:03;26.30;90.70
67188;DHT22;54117;53.532;49.426;2022-07-23T14:15:32;26.40;90.80
67188;DHT22;54117;53.532;49.426;2022-07-23T14:17:59;26.40;91.00
67188;DHT22;54117;53.532;49.426;2022-07-23T14:20:26;26.50;91.00
67188;DHT22;54117;53.532;49.426;2022-07-23T14:22:52;26.60;90.90
67188;DHT22;54117;53.532;49.426;2022-07-23T14:25:21;26.60;90.80
67188;DHT22;54117;53.532;49.426;2022-07-23T14:27:48;26.70;90.20
67188;DHT22;54117;53.532;49.426;2022-07-23T14:30:14;26.70;88.20
67188;DHT22;54117;53.532;49.426;2022-07-23T14:32:41;26.70;87.60
67188;DHT22;54117;53.532;49.426;2022-07-23T14:35:07;26.70;88.10
67188;DHT22;54117;53.532;49.426;2022-07-23T14:37:34;26.70;87.50
67188;DHT22;54117;53.532;49.426;2022-07-23T14:40:00;26.60;87.00
67188;DHT22;54117;53.532;49.426;2022-07-23T14:42:26;26.50;85.50
67188;DHT22;54117;53.532;49.426;2022-07-23T14:44:53;26.40;85.80
67188;DHT22;54117;53.532;49.426;2022-07-23T14:47:19;26.30;86.80
67188;DHT22;54117;53.532;49.426;2022-07-23T14:49:45;26.30;87.20
67188;DHT22;54117;53.532;49.426;2022-07-23T14:52:12;26.30;88.00
67188;DHT22;54117;53.532;49.426;2022-07-23T14:54:38;26.30;89.50
67188;DHT22;54117;53.532;49.426;2022-07-23T14:57:04;26.20;88.70
67188;DHT22;54117;53.532;49.426;2022-07-23T14:59:33;26.10;88.60
67188;DHT22;54117;53.532;49.426;2022-07-23T15:01:59;26.10;88.30
67188;DHT22;54117;53.532;49.426;2022-07-23T15:04:26;26.10;88.90
67188;DHT22;54117;53.532;49.426;2022-07-23T15:06:53;26.10;90.10
67188;DHT22;54117;53.532;49.426;2022-07-23T15:09:19;26.10;90.30
67188;DHT22;54117;53.532;49.426;2022-07-23T15:11:45;26.10;89.90
67188;DHT22;54117;53.532;49.426;2022-07-23T15:14:12;26.10;88.20
67188;DHT22;54117;53.532;49.426;2022-07-23T15:16:38;26.10;87.80
67188;DHT22;54117;53.532;49.426;2022-07-23T15:19:05;26.10;87.50
67188;DHT22;54117;53.532;49.426;2022-07-23T15:21:31;26.10;87.20
67188;DHT22;54117;53.532;49.426;2022-07-23T15:23:58;26.10;86.60
67188;DHT22;54117;53.532;49.426;2022-07-23T15:26:28;26.10;86.30
67188;DHT22;54117;53.532;49.426;2022-07-23T15:28:55;26.10;86.10
67188;DHT22;54117;53.532;49.426;2022-07-23T15:31:22;26.10;85.70
67188;DHT22;54117;53.532;49.426;2022-07-23T15:33:49;26.10;85.60
67188;DHT22;54117;53.532;49.426;2022-07-23T15:36:17;26.00;85.80
67188;DHT22;54117;53.532;49.426;2022-07-23T15:38:47;26.00;85.90
67188;DHT22;54117;53.532;49.426;2022-07-23T15:41:16;26.00;86.00
67188;DHT22;54117;53.532;49.426;2022-07-23T15:43:42;26.00;85.60
67188;DHT22;54117;53.532;49.426;2022-07-23T15:46:09;25.90;84.80
67188;DHT22;54117;53.532;49.426;2022-07-23T15:48:38;25.90;85.10
67188;DHT22;54117;53.532;49.426;2022-07-23T15:51:05;25.90;85.70
67188;DHT22;54117;53.532;49.426;2022-07-23T15:53:33;25.80;86.50
67188;DHT22;54117;53.532;49.426;2022-07-23T15:56:00;25.70;86.50
67188;DHT22;54117;53.532;49.426;2022-07-23T15:58:28;25.70;87.00
67188;DHT22;54117;53.532;49.426;2022-07-23T16:00:54;25.60;86.90
67188;DHT22;54117;53.532;49.426;2022-07-23T16:03:21;25.60;87.50
67188;DHT22;54117;53.532;49.426;2022-07-23T16:05:47;25.50;87.50
67188;DHT22;54117;53.532;49.426;2022-07-23T16:08:16;25.40;88.20
67188;DHT22;54117;53.532;49.426;2022-07-23T16:10:42;25.40;88.70
67188;DHT22;54117;53.532;49.426;2022-07-23T16:13:08;25.30;88.30
67188;DHT22;54117;53.532;49.426;2022-07-23T16:15:35;25.20;88.00
67188;DHT22;54117;53.532;49.426;2022-07-23T16:18:02;25.10;88.80
67188;DHT22;54117;53.532;49.426;2022-07-23T16:20:29;25.00;88.30
67188;DHT22;54117;53.532;49.426;2022-07-23T16:22:55;24.90;88.30
67188;DHT22;54117;53.532;49.426;2022-07-23T16:25:21;24.80;88.10
67188;DHT22;54117;53.532;49.426;2022-07-23T16:27:48;24.70;87.50
67188;DHT22;54117;53.532;49.426;2022-07-23T16:30:14;24.60;87.50
67188;DHT22;54117;53.532;49.426;2022-07-23T16:32:41;24.60;87.70
67188;DHT22;54117;53.532;49.426;2022-07-23T16:35:08;24.50;87.70
67188;DHT22;54117;53.532;49.426;2022-07-23T16:37:35;24.40;87.90
67188;DHT22;54117;53.532;49.426;2022-07-23T16:40:04;24.30;88.20
67188;DHT22;54117;53.532;49.426;2022-07-23T16:42:30;24.20;89.20
67188;DHT22;54117;53.532;49.426;2022-07-23T16:44:57;24.10;90.00
67188;DHT22;54117;53.532;49.426;2022-07-23T16:47:23;24.10;90.10
67188;DHT22;54117;53.532;49.426;2022-07-23T16:49:50;23.90;90.40
67188;DHT22;54117;53.532;49.426;2022-07-23T16:52:17;23.80;90.50
67188;DHT22;54117;53.532;49.426;2022-07-23T16:54:43;23.70;90.70
67188;DHT22;54117;53.532;49.426;2022-07-23T16:57:10;23.70;90.70
67188;DHT22;54117;53.532;49.426;2022-07-23T16:59:36;23.60;90.80
67188;DHT22;54117;53.532;49.426;2022-07-23T17:02:03;23.50;90.90
67188;DHT22;54117;53.532;49.426;2022-07-23T17:04:29;23.40;91.20
67188;DHT22;54117;53.532;49.426;2022-07-23T17:06:56;23.30;91.30
67188;DHT22;54117;53.532;49.426;2022-07-23T17:09:23;23.30;91.40
67188;DHT22;54117;53.532;49.426;2022-07-23T17:11:49;23.20;91.60
67188;DHT22;54117;53.532;49.426;2022-07-23T17:14:15;23.10;92.00
67188;DHT22;54117;53.532;49.426;2022-07-23T17:16:42;23.10;92.20
67188;DHT22;54117;53.532;49.426;2022-07-23T17:19:11;23.00;92.30
67188;DHT22;54117;53.532;49.426;2022-07-23T17:21:37;23.00;92.60
67188;DHT22;54117;53.532;49.426;2022-07-23T17:24:03;22.90;92.80
67188;DHT22;54117;53.532;49.426;2022-07-23T17:26:30;22.80;93.20
67188;DHT22;54117;53.532;49.426;2022-07-23T17:28:59;22.80;93.30
67188;DHT22;54117;53.532;49.426;2022-07-23T17:31:25;22.70;93.50
67188;DHT22;54117;53.532;49.426;2022-07-23T17:33:51;22.70;93.70
67188;DHT22;54117;53.532;49.426;2022-07-23T17:36:18;22.60;94.00
67188;DHT22;54117;53.532;49.426;2022-07-23T17:38:44;22.60;93.90
67188;DHT22;54117;53.532;49.426;2022-07-23T17:41:10;22.50;94.30
67188;DHT22;54117;53.532;49.426;2022-07-23T17:43:37;22.50;94.70
67188;DHT22;54117;53.532;49.426;2022-07-23T17:46:03;22.40;94.70
67188;DHT22;54117;53.532;49.426;2022-07-23T17:48:29;22.40;95.10
67188;DHT22;54117;53.532;49.426;2022-07-23T17:50:56;22.30;95.40
67188;DHT22;54117;53.532;49.426;2022-07-23T17:53:22;22.30;95.40
67188;DHT22;54117;53.532;49.426;2022-07-23T17:55:51;22.20;95.50
67188;DHT22;54117;53.532;49.426;2022-07-23T17:58:18;22.20;95.70
67188;DHT22;54117;53.532;49.426;2022-07-23T18:00:46;22.10;95.70
67188;DHT22;54117;53.532;49.426;2022-07-23T18:03:12;22.10;95.90
67188;DHT22;54117;53.532;49.426;2022-07-23T18:05:39;22.10;96.20
67188;DHT22;54117;53.532;49.426;2022-07-23T18:08:06;22.00;96.20
67188;DHT22;54117;53.532;49.426;2022-07-23T18:10:34;22.00;96.30
67188;DHT22;54117;53.532;49.426;2022-07-23T18:13:01;22.00;96.30
67188;DHT22;54117;53.532;49.426;2022-07-23T18:15:28;21.90;96.30
67188;DHT22;54117;53.532;49.426;2022-07-23T18:17:54;21.90;96.50
67188;DHT22;54117;53.532;49.426;2022-07-23T18:20:20;21.90;96.50
67188;DHT22;54117;53.532;49.426;2022-07-23T18:22:49;21.90;96.50
67188;DHT22;54117;53.532;49.426;2022-07-23T18:25:24;21.90;96.70
67188;DHT22;54117;53.532;49.426;2022-07-23T18:27:50;21.80;96.60
67188;DHT22;54117;53.532;49.426;2022-07-23T18:30:17;21.80;96.60
67188;DHT22;54117;53.532;49.426;2022-07-23T18:32:43;21.80;96.50
67188;DHT22;54117;53.532;49.426;2022-07-23T18:35:09;21.80;96.50
67188;DHT22;54117;53.532;49.426;2022-07-23T18:37:39;21.70;96.50
67188;DHT22;54117;53.532;49.426;2022-07-23T18:40:07;21.70;96.70
67188;DHT22;54117;53.532;49.426;2022-07-23T18:42:34;21.70;96.80
67188;DHT22;54117;53.532;49.426;2022-07-23T18:45:05;21.60;97.00
67188;DHT22;54117;53.532;49.426;2022-07-23T18:47:36;21.60;97.20
67188;DHT22;54117;53.532;49.426;2022-07-23T18:50:05;21.50;97.50
67188;DHT22;54117;53.532;49.426;2022-07-23T18:52:32;21.50;97.40
67188;DHT22;54117;53.532;49.426;2022-07-23T18:55:00;21.50;97.40
67188;DHT22;54117;53.532;49.426;2022-07-23T18:57:27;21.50;97.60
67188;DHT22;54117;53.532;49.426;2022-07-23T18:59:53;21.50;97.50
67188;DHT22;54117;53.532;49.426;2022-07-23T19:02:19;21.50;97.40
67188;DHT22;54117;53.532;49.426;2022-07-23T19:04:48;21.40;97.40
67188;DHT22;54117;53.532;49.426;2022-07-23T19:07:15;21.40;97.40
67188;DHT22;54117;53.532;49.426;2022-07-23T19:09:44;21.40;97.60
67188;DHT22;54117;53.532;49.426;2022-07-23T19:12:10;21.40;97.60
67188;DHT22;54117;53.532;49.426;2022-07-23T19:14:36;21.30;97.60
67188;DHT22;54117;53.532;49.426;2022-07-23T19:17:03;21.30;97.60
67188;DHT22;54117;53.532;49.426;2022-07-23T19:19:30;21.30;97.60
67188;DHT22;54117;53.532;49.426;2022-07-23T19:21:59;21.20;97.60
67188;DHT22;54117;53.532;49.426;2022-07-23T19:24:34;21.20;97.70
67188;DHT22;54117;53.532;49.426;2022-07-23T19:27:01;21.20;97.60
67188;DHT22;54117;53.532;49.426;2022-07-23T19:29:27;21.20;97.60
67188;DHT22;54117;53.532;49.426;2022-07-23T19:31:59;21.20;97.60
67188;DHT22;54117;53.532;49.426;2022-07-23T19:34:26;21.20;97.40
67188;DHT22;54117;53.532;49.426;2022-07-23T19:36:52;21.10;97.50
67188;DHT22;54117;53.532;49.426;2022-07-23T19:39:19;21.10;97.40
67188;DHT22;54117;53.532;49.426;2022-07-23T19:41:45;21.10;97.40
67188;DHT22;54117;53.532;49.426;2022-07-23T19:44:14;21.10;97.40
67188;DHT22;54117;53.532;49.426;2022-07-23T19:46:41;21.00;97.50
67188;DHT22;54117;53.532;49.426;2022-07-23T19:49:07;20.90;97.70
67188;DHT22;54117;53.532;49.426;2022-07-23T19:51:34;20.90;97.40
67188;DHT22;54117;53.532;49.426;2022-07-23T19:54:03;20.90;97.30
67188;DHT22;54117;53.532;49.426;2022-07-23T19:56:29;20.90;97.30
67188;DHT22;54117;53.532;49.426;2022-07-23T19:58:55;20.90;97.10
67188;DHT22;54117;53.532;49.426;2022-07-23T20:01:22;20.80;97.00
67188;DHT22;54117;53.532;49.426;2022-07-23T20:03:53;20.90;97.00
67188;DHT22;54117;53.532;49.426;2022-07-23T20:06:20;20.80;97.00
67188;DHT22;54117;53.532;49.426;2022-07-23T20:08:46;20.80;97.10
67188;DHT22;54117;53.532;49.426;2022-07-23T20:11:12;20.80;97.10
67188;DHT22;54117;53.532;49.426;2022-07-23T20:13:42;20.80;97.10
67188;DHT22;54117;53.532;49.426;2022-07-23T20:16:08;20.80;97.10
67188;DHT22;54117;53.532;49.426;2022-07-23T20:18:34;20.70;97.20
67188;DHT22;54117;53.532;49.426;2022-07-23T20:21:01;20.70;97.40
67188;DHT22;54117;53.532;49.426;2022-07-23T20:23:27;20.70;97.20
67188;DHT22;54117;53.532;49.426;2022-07-23T20:25:54;20.60;97.00
67188;DHT22;54117;53.532;49.426;2022-07-23T20:28:21;20.60;97.00
67188;DHT22;54117;53.532;49.426;2022-07-23T20:30:48;20.60;97.10
67188;DHT22;54117;53.532;49.426;2022-07-23T20:33:15;20.60;97.00
67188;DHT22;54117;53.532;49.426;2022-07-23T20:35:42;20.50;97.00
67188;DHT22;54117;53.532;49.426;2022-07-23T20:38:09;20.50;96.80
67188;DHT22;54117;53.532;49.426;2022-07-23T20:40:38;20.50;96.80
67188;DHT22;54117;53.532;49.426;2022-07-23T20:43:07;20.50;96.90
67188;DHT22;54117;53.532;49.426;2022-07-23T20:45:35;20.50;96.90
67188;DHT22;54117;53.532;49.426;2022-07-23T20:48:01;20.50;96.70
67188;DHT22;54117;53.532;49.426;2022-07-23T20:50:28;20.50;96.60